sensor_id;sensor_type;location;lat;lon;timestamp;P1;durP1;ratioP1;P2;durP2;ratioP2
81211;SDS011;70686;52.494;13.420;2023-10-31T00:01:50;7.63;;;5.10;;
81211;SDS011;70686;52.494;13.420;2023-10-31T00:04:16;8.25;;;5.03;;
81211;SDS011;70686;52.494;13.420;2023-10-31T00:06:42;15.45;;;6.05;;
81211;SDS011;70686;52.494;13.420;2023-10-31T00:09:08;11.77;;;5.32;;
81211;SDS011;70686;52.494;13.420;2023-10-31T00:11:35;9.80;;;5.38;;
81211;SDS011;70686;52.494;13.420;2023-10-31T00:14:01;8.30;;;4.80;;
81211;SDS011;70686;52.494;13.420;2023-10-31T00:16:27;9.25;;;5.22;;
81211;SDS011;70686;52.494;13.420;2023-10-31T00:18:53;10.13;;;5.35;;
81211;SDS011;70686;52.494;13.420;2023-10-31T00:21:18;7.68;;;5.30;;
81211;SDS011;70686;52.494;13.420;2023-10-31T00:23:47;9.32;;;5.68;;
81211;SDS011;70686;52.494;13.420;2023-10-31T00:26:13;9.90;;;5.38;;
81211;SDS011;70686;52.494;13.420;2023-10-31T00:28:40;8.48;;;5.20;;
81211;SDS011;70686;52.494;13.420;2023-10-31T00:31:05;8.95;;;5.28;;
81211;SDS011;70686;52.494;13.420;2023-10-31T00:33:33;10.80;;;5.80;;
81211;SDS011;70686;52.494;13.420;2023-10-31T00:35:59;8.63;;;5.38;;
81211;SDS011;70686;52.494;13.420;2023-10-31T00:38:25;9.25;;;5.55;;
81211;SDS011;70686;52.494;13.420;2023-10-31T00:40:51;9.93;;;5.38;;
81211;SDS011;70686;52.494;13.420;2023-10-31T00:43:16;8.43;;;5.35;;
81211;SDS011;70686;52.494;13.420;2023-10-31T00:45:42;7.10;;;4.93;;
81211;SDS011;70686;52.494;13.420;2023-10-31T00:48:08;9.40;;;5.10;;
81211;SDS011;70686;52.494;13.420;2023-10-31T00:50:33;9.50;;;5.30;;
81211;SDS011;70686;52.494;13.420;2023-10-31T00:52:59;10.30;;;5.70;;
81211;SDS011;70686;52.494;13.420;2023-10-31T00:55:24;9.23;;;4.82;;
81211;SDS011;70686;52.494;13.420;2023-10-31T00:57:50;9.80;;;5.18;;
81211;SDS011;70686;52.494;13.420;2023-10-31T01:00:16;8.00;;;5.30;;
81211;SDS011;70686;52.494;13.420;2023-10-31T01:02:41;9.98;;;5.30;;
81211;SDS011;70686;52.494;13.420;2023-10-31T01:05:07;8.32;;;5.00;;
81211;SDS011;70686;52.494;13.420;2023-10-31T01:07:34;9.70;;;5.45;;
81211;SDS011;70686;52.494;13.420;2023-10-31T01:09:59;9.60;;;5.18;;
81211;SDS011;70686;52.494;13.420;2023-10-31T01:12:25;9.23;;;5.30;;
81211;SDS011;70686;52.494;13.420;2023-10-31T01:14:53;10.40;;;5.18;;
81211;SDS011;70686;52.494;13.420;2023-10-31T01:17:19;9.05;;;5.30;;
81211;SDS011;70686;52.494;13.420;2023-10-31T01:19:45;9.68;;;5.65;;
81211;SDS011;70686;52.494;13.420;2023-10-31T01:22:11;9.70;;;5.70;;
81211;SDS011;70686;52.494;13.420;2023-10-31T01:24:36;9.38;;;4.88;;
81211;SDS011;70686;52.494;13.420;2023-10-31T01:27:02;10.57;;;6.32;;
81211;SDS011;70686;52.494;13.420;2023-10-31T01:29:28;8.77;;;5.70;;
81211;SDS011;70686;52.494;13.420;2023-10-31T01:31:54;10.18;;;6.05;;
81211;SDS011;70686;52.494;13.420;2023-10-31T01:34:20;9.65;;;5.80;;
81211;SDS011;70686;52.494;13.420;2023-10-31T01:36:45;8.55;;;5.68;;
81211;SDS011;70686;52.494;13.420;2023-10-31T01:39:11;8.60;;;5.53;;
81211;SDS011;70686;52.494;13.420;2023-10-31T01:41:36;10.32;;;6.03;;
81211;SDS011;70686;52.494;13.420;2023-10-31T01:44:02;9.20;;;5.93;;
81211;SDS011;70686;52.494;13.420;2023-10-31T01:46:28;8.88;;;5.88;;
81211;SDS011;70686;52.494;13.420;2023-10-31T01:48:54;10.25;;;5.25;;
81211;SDS011;70686;52.494;13.420;2023-10-31T01:51:19;10.30;;;6.18;;
81211;SDS011;70686;52.494;13.420;2023-10-31T01:53:45;12.68;;;6.05;;
81211;SDS011;70686;52.494;13.420;2023-10-31T01:56:12;11.90;;;5.85;;
81211;SDS011;70686;52.494;13.420;2023-10-31T01:58:38;9.75;;;6.13;;
81211;SDS011;70686;52.494;13.420;2023-10-31T02:01:05;10.40;;;6.10;;
81211;SDS011;70686;52.494;13.420;2023-10-31T02:03:31;9.90;;;6.00;;
81211;SDS011;70686;52.494;13.420;2023-10-31T02:05:58;9.85;;;5.78;;
81211;SDS011;70686;52.494;13.420;2023-10-31T02:08:27;9.95;;;6.07;;
81211;SDS011;70686;52.494;13.420;2023-10-31T02:10:53;10.88;;;6.22;;
81211;SDS011;70686;52.494;13.420;2023-10-31T02:13:18;15.80;;;6.78;;
81211;SDS011;70686;52.494;13.420;2023-10-31T02:15:44;9.57;;;6.53;;
81211;SDS011;70686;52.494;13.420;2023-10-31T02:18:10;12.23;;;6.03;;
81211;SDS011;70686;52.494;13.420;2023-10-31T02:20:36;10.20;;;6.20;;
81211;SDS011;70686;52.494;13.420;2023-10-31T02:23:02;10.85;;;6.03;;
81211;SDS011;70686;52.494;13.420;2023-10-31T02:25:29;9.55;;;6.25;;
81211;SDS011;70686;52.494;13.420;2023-10-31T02:27:54;10.60;;;6.50;;
81211;SDS011;70686;52.494;13.420;2023-10-31T02:30:20;11.50;;;6.72;;
81211;SDS011;70686;52.494;13.420;2023-10-31T02:32:46;12.35;;;6.32;;
81211;SDS011;70686;52.494;13.420;2023-10-31T02:35:11;11.40;;;6.47;;
81211;SDS011;70686;52.494;13.420;2023-10-31T02:37:37;11.05;;;6.07;;
81211;SDS011;70686;52.494;13.420;2023-10-31T02:40:03;13.63;;;6.82;;
81211;SDS011;70686;52.494;13.420;2023-10-31T02:42:29;12.50;;;7.18;;
81211;SDS011;70686;52.494;13.420;2023-10-31T02:44:55;11.38;;;5.93;;
81211;SDS011;70686;52.494;13.420;2023-10-31T02:47:21;9.65;;;6.07;;
81211;SDS011;70686;52.494;13.420;2023-10-31T02:49:46;12.18;;;6.45;;
81211;SDS011;70686;52.494;13.420;2023-10-31T02:52:12;10.57;;;6.82;;
81211;SDS011;70686;52.494;13.420;2023-10-31T02:54:38;9.68;;;6.53;;
81211;SDS011;70686;52.494;13.420;2023-10-31T02:57:03;9.45;;;6.57;;
81211;SDS011;70686;52.494;13.420;2023-10-31T02:59:29;12.88;;;6.70;;
81211;SDS011;70686;52.494;13.420;2023-10-31T03:01:55;10.98;;;6.93;;
81211;SDS011;70686;52.494;13.420;2023-10-31T03:04:22;10.50;;;6.28;;
81211;SDS011;70686;52.494;13.420;2023-10-31T03:06:48;9.80;;;6.65;;
81211;SDS011;70686;52.494;13.420;2023-10-31T03:09:13;13.05;;;6.80;;
81211;SDS011;70686;52.494;13.420;2023-10-31T03:11:39;10.40;;;6.70;;
81211;SDS011;70686;52.494;13.420;2023-10-31T03:14:05;11.32;;;6.65;;
81211;SDS011;70686;52.494;13.420;2023-10-31T03:16:31;11.98;;;6.97;;
81211;SDS011;70686;52.494;13.420;2023-10-31T03:18:57;10.40;;;6.22;;
81211;SDS011;70686;52.494;13.420;2023-10-31T03:21:23;10.65;;;6.88;;
81211;SDS011;70686;52.494;13.420;2023-10-31T03:23:49;13.43;;;7.00;;
81211;SDS011;70686;52.494;13.420;2023-10-31T03:26:18;11.55;;;6.93;;
81211;SDS011;70686;52.494;13.420;2023-10-31T03:28:45;12.52;;;6.85;;
81211;SDS011;70686;52.494;13.420;2023-10-31T03:31:11;13.68;;;6.90;;
81211;SDS011;70686;52.494;13.420;2023-10-31T03:33:37;12.40;;;6.28;;
81211;SDS011;70686;52.494;13.420;2023-10-31T03:36:03;12.95;;;6.68;;
81211;SDS011;70686;52.494;13.420;2023-10-31T03:38:30;10.02;;;6.55;;
81211;SDS011;70686;52.494;13.420;2023-10-31T03:40:56;11.15;;;6.68;;
81211;SDS011;70686;52.494;13.420;2023-10-31T03:43:22;11.13;;;6.72;;
81211;SDS011;70686;52.494;13.420;2023-10-31T03:45:47;9.98;;;6.47;;
81211;SDS011;70686;52.494;13.420;2023-10-31T03:48:13;13.45;;;6.53;;
81211;SDS011;70686;52.494;13.420;2023-10-31T03:50:41;11.02;;;6.03;;
81211;SDS011;70686;52.494;13.420;2023-10-31T03:53:06;10.68;;;7.15;;
81211;SDS011;70686;52.494;13.420;2023-10-31T03:55:32;12.63;;;6.75;;
81211;SDS011;70686;52.494;13.420;2023-10-31T03:57:58;12.93;;;6.50;;
81211;SDS011;70686;52.494;13.420;2023-10-31T04:00:23;11.15;;;6.45;;
81211;SDS011;70686;52.494;13.420;2023-10-31T04:02:49;11.93;;;7.13;;
81211;SDS011;70686;52.494;13.420;2023-10-31T04:05:14;10.40;;;6.15;;
81211;SDS011;70686;52.494;13.420;2023-10-31T04:07:40;10.80;;;6.80;;
81211;SDS011;70686;52.494;13.420;2023-10-31T04:10:06;10.80;;;6.70;;
81211;SDS011;70686;52.494;13.420;2023-10-31T04:12:32;10.98;;;6.85;;
81211;SDS011;70686;52.494;13.420;2023-10-31T04:14:58;12.32;;;7.00;;
81211;SDS011;70686;52.494;13.420;2023-10-31T04:17:24;13.00;;;6.88;;
81211;SDS011;70686;52.494;13.420;2023-10-31T04:19:50;11.18;;;6.60;;
81211;SDS011;70686;52.494;13.420;2023-10-31T04:22:15;11.73;;;6.60;;
81211;SDS011;70686;52.494;13.420;2023-10-31T04:24:41;10.60;;;6.95;;
81211;SDS011;70686;52.494;13.420;2023-10-31T04:27:08;12.93;;;7.25;;
81211;SDS011;70686;52.494;13.420;2023-10-31T04:29:33;12.20;;;7.32;;
81211;SDS011;70686;52.494;13.420;2023-10-31T04:31:59;13.02;;;7.35;;
81211;SDS011;70686;52.494;13.420;2023-10-31T04:34:25;12.05;;;7.93;;
81211;SDS011;70686;52.494;13.420;2023-10-31T04:36:50;9.13;;;6.75;;
81211;SDS011;70686;52.494;13.420;2023-10-31T04:39:16;14.55;;;7.47;;
81211;SDS011;70686;52.494;13.420;2023-10-31T04:41:41;14.02;;;7.38;;
81211;SDS011;70686;52.494;13.420;2023-10-31T04:44:07;13.77;;;7.75;;
81211;SDS011;70686;52.494;13.420;2023-10-31T04:46:33;15.30;;;7.47;;
81211;SDS011;70686;52.494;13.420;2023-10-31T04:48:58;12.38;;;6.93;;
81211;SDS011;70686;52.494;13.420;2023-10-31T04:51:24;12.40;;;7.28;;
81211;SDS011;70686;52.494;13.420;2023-10-31T04:53:50;12.02;;;7.63;;
81211;SDS011;70686;52.494;13.420;2023-10-31T04:56:16;11.27;;;7.30;;
81211;SDS011;70686;52.494;13.420;2023-10-31T04:58:42;11.90;;;7.55;;
81211;SDS011;70686;52.494;13.420;2023-10-31T05:01:11;14.13;;;7.90;;
81211;SDS011;70686;52.494;13.420;2023-10-31T05:03:38;12.57;;;6.93;;
81211;SDS011;70686;52.494;13.420;2023-10-31T05:06:04;11.90;;;7.70;;
81211;SDS011;70686;52.494;13.420;2023-10-31T05:08:34;10.77;;;7.32;;
81211;SDS011;70686;52.494;13.420;2023-10-31T05:10:59;12.32;;;7.20;;
81211;SDS011;70686;52.494;13.420;2023-10-31T05:13:25;11.25;;;7.03;;
81211;SDS011;70686;52.494;13.420;2023-10-31T05:15:50;12.57;;;8.00;;
81211;SDS011;70686;52.494;13.420;2023-10-31T05:18:17;12.38;;;7.95;;
81211;SDS011;70686;52.494;13.420;2023-10-31T05:20:42;12.63;;;7.90;;
81211;SDS011;70686;52.494;13.420;2023-10-31T05:23:08;14.73;;;8.43;;
81211;SDS011;70686;52.494;13.420;2023-10-31T05:25:34;13.55;;;8.02;;
81211;SDS011;70686;52.494;13.420;2023-10-31T05:28:00;12.35;;;7.88;;
81211;SDS011;70686;52.494;13.420;2023-10-31T05:30:26;13.50;;;7.68;;
81211;SDS011;70686;52.494;13.420;2023-10-31T05:32:52;15.23;;;8.35;;
81211;SDS011;70686;52.494;13.420;2023-10-31T05:35:18;12.43;;;7.93;;
81211;SDS011;70686;52.494;13.420;2023-10-31T05:37:45;12.35;;;8.00;;
81211;SDS011;70686;52.494;13.420;2023-10-31T05:40:11;10.73;;;7.35;;
81211;SDS011;70686;52.494;13.420;2023-10-31T05:42:38;11.82;;;7.50;;
81211;SDS011;70686;52.494;13.420;2023-10-31T05:45:03;12.73;;;7.50;;
81211;SDS011;70686;52.494;13.420;2023-10-31T05:47:29;13.30;;;7.90;;
81211;SDS011;70686;52.494;13.420;2023-10-31T05:49:55;13.70;;;7.72;;
81211;SDS011;70686;52.494;13.420;2023-10-31T05:52:21;10.73;;;6.68;;
81211;SDS011;70686;52.494;13.420;2023-10-31T05:54:46;9.95;;;6.50;;
81211;SDS011;70686;52.494;13.420;2023-10-31T05:57:12;8.50;;;6.00;;
81211;SDS011;70686;52.494;13.420;2023-10-31T05:59:37;12.93;;;6.82;;
81211;SDS011;70686;52.494;13.420;2023-10-31T06:02:03;10.88;;;6.85;;
81211;SDS011;70686;52.494;13.420;2023-10-31T06:04:29;10.20;;;6.88;;
81211;SDS011;70686;52.494;13.420;2023-10-31T06:06:55;10.27;;;6.35;;
81211;SDS011;70686;52.494;13.420;2023-10-31T06:09:20;9.13;;;6.18;;
81211;SDS011;70686;52.494;13.420;2023-10-31T06:11:46;11.77;;;7.10;;
81211;SDS011;70686;52.494;13.420;2023-10-31T06:14:12;9.20;;;6.35;;
81211;SDS011;70686;52.494;13.420;2023-10-31T06:16:41;10.80;;;6.43;;
81211;SDS011;70686;52.494;13.420;2023-10-31T06:19:10;9.20;;;6.45;;
81211;SDS011;70686;52.494;13.420;2023-10-31T06:21:35;8.15;;;5.25;;
81211;SDS011;70686;52.494;13.420;2023-10-31T06:24:04;10.23;;;6.43;;
81211;SDS011;70686;52.494;13.420;2023-10-31T06:26:30;9.63;;;6.00;;
81211;SDS011;70686;52.494;13.420;2023-10-31T06:28:56;9.30;;;6.40;;
81211;SDS011;70686;52.494;13.420;2023-10-31T06:31:25;9.25;;;5.63;;
81211;SDS011;70686;52.494;13.420;2023-10-31T06:33:50;8.68;;;5.90;;
81211;SDS011;70686;52.494;13.420;2023-10-31T06:36:16;11.93;;;7.05;;
81211;SDS011;70686;52.494;13.420;2023-10-31T06:38:44;8.90;;;5.85;;
81211;SDS011;70686;52.494;13.420;2023-10-31T06:41:10;8.90;;;6.28;;
81211;SDS011;70686;52.494;13.420;2023-10-31T06:43:36;7.57;;;5.43;;
81211;SDS011;70686;52.494;13.420;2023-10-31T06:46:02;8.75;;;5.20;;
81211;SDS011;70686;52.494;13.420;2023-10-31T06:48:29;9.23;;;5.60;;
81211;SDS011;70686;52.494;13.420;2023-10-31T06:50:55;7.70;;;5.30;;
81211;SDS011;70686;52.494;13.420;2023-10-31T06:53:21;6.82;;;4.82;;
81211;SDS011;70686;52.494;13.420;2023-10-31T06:55:46;7.78;;;5.55;;
81211;SDS011;70686;52.494;13.420;2023-10-31T06:58:12;6.75;;;4.65;;
81211;SDS011;70686;52.494;13.420;2023-10-31T07:00:38;7.97;;;4.93;;
81211;SDS011;70686;52.494;13.420;2023-10-31T07:03:04;7.22;;;4.65;;
81211;SDS011;70686;52.494;13.420;2023-10-31T07:05:34;8.65;;;5.75;;
81211;SDS011;70686;52.494;13.420;2023-10-31T07:08:02;8.77;;;5.00;;
81211;SDS011;70686;52.494;13.420;2023-10-31T07:10:29;8.55;;;5.80;;
81211;SDS011;70686;52.494;13.420;2023-10-31T07:12:55;10.38;;;5.97;;
81211;SDS011;70686;52.494;13.420;2023-10-31T07:15:20;8.57;;;5.63;;
81211;SDS011;70686;52.494;13.420;2023-10-31T07:17:46;8.13;;;5.18;;
81211;SDS011;70686;52.494;13.420;2023-10-31T07:20:12;5.20;;;4.00;;
81211;SDS011;70686;52.494;13.420;2023-10-31T07:22:38;7.32;;;5.00;;
81211;SDS011;70686;52.494;13.420;2023-10-31T07:25:05;7.07;;;4.47;;
81211;SDS011;70686;52.494;13.420;2023-10-31T07:27:31;6.40;;;4.35;;
81211;SDS011;70686;52.494;13.420;2023-10-31T07:29:57;5.15;;;3.35;;
81211;SDS011;70686;52.494;13.420;2023-10-31T07:32:22;4.70;;;3.40;;
81211;SDS011;70686;52.494;13.420;2023-10-31T07:34:48;3.28;;;2.20;;
81211;SDS011;70686;52.494;13.420;2023-10-31T07:37:14;3.55;;;2.47;;
81211;SDS011;70686;52.494;13.420;2023-10-31T07:39:39;3.13;;;2.63;;
81211;SDS011;70686;52.494;13.420;2023-10-31T07:42:05;3.38;;;2.53;;
81211;SDS011;70686;52.494;13.420;2023-10-31T07:44:31;3.15;;;2.30;;
81211;SDS011;70686;52.494;13.420;2023-10-31T07:46:57;3.67;;;2.17;;
81211;SDS011;70686;52.494;13.420;2023-10-31T07:49:22;3.15;;;2.58;;
81211;SDS011;70686;52.494;13.420;2023-10-31T07:51:48;5.72;;;3.00;;
81211;SDS011;70686;52.494;13.420;2023-10-31T07:54:14;4.10;;;2.60;;
81211;SDS011;70686;52.494;13.420;2023-10-31T07:56:40;3.35;;;2.67;;
81211;SDS011;70686;52.494;13.420;2023-10-31T07:59:06;3.90;;;2.50;;
81211;SDS011;70686;52.494;13.420;2023-10-31T08:01:32;3.97;;;2.35;;
81211;SDS011;70686;52.494;13.420;2023-10-31T08:03:58;2.58;;;1.98;;
81211;SDS011;70686;52.494;13.420;2023-10-31T08:06:24;3.05;;;2.55;;
81211;SDS011;70686;52.494;13.420;2023-10-31T08:08:50;2.25;;;2.03;;
81211;SDS011;70686;52.494;13.420;2023-10-31T08:11:15;3.08;;;2.13;;
81211;SDS011;70686;52.494;13.420;2023-10-31T08:13:41;2.35;;;1.75;;
81211;SDS011;70686;52.494;13.420;2023-10-31T08:16:07;2.95;;;1.73;;
81211;SDS011;70686;52.494;13.420;2023-10-31T08:18:33;3.53;;;1.70;;
81211;SDS011;70686;52.494;13.420;2023-10-31T08:20:59;2.42;;;1.52;;
81211;SDS011;70686;52.494;13.420;2023-10-31T08:23:25;4.28;;;1.80;;
81211;SDS011;70686;52.494;13.420;2023-10-31T08:25:51;2.20;;;1.92;;
81211;SDS011;70686;52.494;13.420;2023-10-31T08:28:17;1.55;;;1.45;;
81211;SDS011;70686;52.494;13.420;2023-10-31T08:30:42;2.42;;;2.22;;
81211;SDS011;70686;52.494;13.420;2023-10-31T08:33:08;1.83;;;1.67;;
81211;SDS011;70686;52.494;13.420;2023-10-31T08:35:35;2.58;;;1.63;;
81211;SDS011;70686;52.494;13.420;2023-10-31T08:38:00;2.13;;;1.92;;
81211;SDS011;70686;52.494;13.420;2023-10-31T08:40:26;2.17;;;1.77;;
81211;SDS011;70686;52.494;13.420;2023-10-31T08:42:52;1.40;;;1.30;;
81211;SDS011;70686;52.494;13.420;2023-10-31T08:45:18;1.67;;;1.30;;
81211;SDS011;70686;52.494;13.420;2023-10-31T08:47:43;2.03;;;1.90;;
81211;SDS011;70686;52.494;13.420;2023-10-31T08:50:09;3.38;;;1.70;;
81211;SDS011;70686;52.494;13.420;2023-10-31T08:52:36;4.13;;;2.00;;
81211;SDS011;70686;52.494;13.420;2023-10-31T08:55:02;2.10;;;1.63;;
81211;SDS011;70686;52.494;13.420;2023-10-31T08:57:28;2.33;;;1.60;;
81211;SDS011;70686;52.494;13.420;2023-10-31T08:59:55;1.58;;;1.25;;
81211;SDS011;70686;52.494;13.420;2023-10-31T09:02:20;2.33;;;1.52;;
81211;SDS011;70686;52.494;13.420;2023-10-31T09:04:46;2.80;;;1.67;;
81211;SDS011;70686;52.494;13.420;2023-10-31T09:07:11;1.98;;;1.55;;
81211;SDS011;70686;52.494;13.420;2023-10-31T09:09:37;1.63;;;1.50;;
81211;SDS011;70686;52.494;13.420;2023-10-31T09:12:03;1.38;;;1.13;;
81211;SDS011;70686;52.494;13.420;2023-10-31T09:14:29;2.75;;;1.50;;
81211;SDS011;70686;52.494;13.420;2023-10-31T09:16:54;1.23;;;1.13;;
81211;SDS011;70686;52.494;13.420;2023-10-31T09:19:20;1.73;;;1.38;;
81211;SDS011;70686;52.494;13.420;2023-10-31T09:21:45;1.95;;;1.48;;
81211;SDS011;70686;52.494;13.420;2023-10-31T09:24:11;0.73;;;0.73;;
81211;SDS011;70686;52.494;13.420;2023-10-31T09:26:36;2.45;;;1.17;;
81211;SDS011;70686;52.494;13.420;2023-10-31T09:29:06;1.70;;;1.25;;
81211;SDS011;70686;52.494;13.420;2023-10-31T09:31:32;1.10;;;0.95;;
81211;SDS011;70686;52.494;13.420;2023-10-31T09:33:57;1.88;;;1.38;;
81211;SDS011;70686;52.494;13.420;2023-10-31T09:36:23;1.23;;;1.13;;
81211;SDS011;70686;52.494;13.420;2023-10-31T09:38:48;1.95;;;1.42;;
81211;SDS011;70686;52.494;13.420;2023-10-31T09:41:14;2.72;;;1.63;;
81211;SDS011;70686;52.494;13.420;2023-10-31T09:43:40;1.15;;;0.98;;
81211;SDS011;70686;52.494;13.420;2023-10-31T09:46:06;1.50;;;1.40;;
81211;SDS011;70686;52.494;13.420;2023-10-31T09:48:35;3.30;;;1.80;;
81211;SDS011;70686;52.494;13.420;2023-10-31T09:51:01;2.17;;;1.85;;
81211;SDS011;70686;52.494;13.420;2023-10-31T09:53:27;2.22;;;1.85;;
81211;SDS011;70686;52.494;13.420;2023-10-31T09:55:54;3.00;;;1.70;;
81211;SDS011;70686;52.494;13.420;2023-10-31T09:58:22;1.95;;;1.83;;
81211;SDS011;70686;52.494;13.420;2023-10-31T10:00:47;3.40;;;2.30;;
81211;SDS011;70686;52.494;13.420;2023-10-31T10:03:13;2.03;;;1.80;;
81211;SDS011;70686;52.494;13.420;2023-10-31T10:05:39;1.45;;;1.35;;
81211;SDS011;70686;52.494;13.420;2023-10-31T10:08:09;2.20;;;2.00;;
81211;SDS011;70686;52.494;13.420;2023-10-31T10:10:35;1.85;;;1.75;;
81211;SDS011;70686;52.494;13.420;2023-10-31T10:13:01;1.67;;;1.45;;
81211;SDS011;70686;52.494;13.420;2023-10-31T10:15:28;1.40;;;1.25;;
81211;SDS011;70686;52.494;13.420;2023-10-31T10:17:55;1.85;;;1.67;;
81211;SDS011;70686;52.494;13.420;2023-10-31T10:20:20;1.58;;;1.48;;
81211;SDS011;70686;52.494;13.420;2023-10-31T10:22:46;2.13;;;1.73;;
81211;SDS011;70686;52.494;13.420;2023-10-31T10:25:13;2.65;;;1.73;;
81211;SDS011;70686;52.494;13.420;2023-10-31T10:27:46;2.40;;;1.85;;
81211;SDS011;70686;52.494;13.420;2023-10-31T10:30:15;1.80;;;1.40;;
81211;SDS011;70686;52.494;13.420;2023-10-31T10:32:41;1.63;;;1.52;;
81211;SDS011;70686;52.494;13.420;2023-10-31T10:35:07;2.72;;;1.73;;
81211;SDS011;70686;52.494;13.420;2023-10-31T10:37:34;3.58;;;1.73;;
81211;SDS011;70686;52.494;13.420;2023-10-31T10:40:08;2.53;;;1.40;;
81211;SDS011;70686;52.494;13.420;2023-10-31T10:42:54;2.55;;;1.80;;
81211;SDS011;70686;52.494;13.420;2023-10-31T10:45:24;2.92;;;1.52;;
81211;SDS011;70686;52.494;13.420;2023-10-31T10:47:50;2.50;;;1.92;;
81211;SDS011;70686;52.494;13.420;2023-10-31T10:50:19;2.88;;;2.15;;
81211;SDS011;70686;52.494;13.420;2023-10-31T10:52:54;2.03;;;1.83;;
81211;SDS011;70686;52.494;13.420;2023-10-31T10:55:32;1.95;;;1.48;;
81211;SDS011;70686;52.494;13.420;2023-10-31T10:58:27;1.90;;;1.63;;
81211;SDS011;70686;52.494;13.420;2023-10-31T11:01:02;3.60;;;1.80;;
81211;SDS011;70686;52.494;13.420;2023-10-31T11:03:29;3.58;;;2.03;;
81211;SDS011;70686;52.494;13.420;2023-10-31T11:05:55;3.42;;;2.28;;
81211;SDS011;70686;52.494;13.420;2023-10-31T11:08:23;2.67;;;1.95;;
81211;SDS011;70686;52.494;13.420;2023-10-31T11:10:51;2.45;;;2.10;;
81211;SDS011;70686;52.494;13.420;2023-10-31T11:13:19;3.22;;;2.42;;
81211;SDS011;70686;52.494;13.420;2023-10-31T11:15:46;2.85;;;2.05;;
81211;SDS011;70686;52.494;13.420;2023-10-31T11:18:16;3.28;;;2.13;;
81211;SDS011;70686;52.494;13.420;2023-10-31T11:20:42;5.85;;;2.65;;
81211;SDS011;70686;52.494;13.420;2023-10-31T11:23:08;2.55;;;2.17;;
81211;SDS011;70686;52.494;13.420;2023-10-31T11:25:34;2.35;;;2.00;;
81211;SDS011;70686;52.494;13.420;2023-10-31T11:28:12;4.18;;;2.63;;
81211;SDS011;70686;52.494;13.420;2023-10-31T11:30:40;3.33;;;2.20;;
81211;SDS011;70686;52.494;13.420;2023-10-31T11:33:11;2.75;;;2.20;;
81211;SDS011;70686;52.494;13.420;2023-10-31T11:35:41;3.47;;;2.50;;
81211;SDS011;70686;52.494;13.420;2023-10-31T11:38:10;1.88;;;1.50;;
81211;SDS011;70686;52.494;13.420;2023-10-31T11:43:14;2.78;;;2.33;;
81211;SDS011;70686;52.494;13.420;2023-10-31T11:45:41;2.55;;;2.10;;
81211;SDS011;70686;52.494;13.420;2023-10-31T11:48:09;4.15;;;2.10;;
81211;SDS011;70686;52.494;13.420;2023-10-31T11:50:36;2.90;;;1.77;;
81211;SDS011;70686;52.494;13.420;2023-10-31T11:53:12;2.72;;;2.35;;
81211;SDS011;70686;52.494;13.420;2023-10-31T11:55:40;7.32;;;2.40;;
81211;SDS011;70686;52.494;13.420;2023-10-31T11:58:12;4.03;;;2.22;;
81211;SDS011;70686;52.494;13.420;2023-10-31T12:00:41;2.25;;;1.60;;
81211;SDS011;70686;52.494;13.420;2023-10-31T12:03:07;2.55;;;1.55;;
81211;SDS011;70686;52.494;13.420;2023-10-31T12:05:33;1.80;;;1.50;;
81211;SDS011;70686;52.494;13.420;2023-10-31T12:07:58;1.75;;;1.30;;
81211;SDS011;70686;52.494;13.420;2023-10-31T12:10:25;2.40;;;1.20;;
81211;SDS011;70686;52.494;13.420;2023-10-31T12:12:55;2.20;;;1.10;;
81211;SDS011;70686;52.494;13.420;2023-10-31T12:15:21;1.15;;;1.08;;
81211;SDS011;70686;52.494;13.420;2023-10-31T12:17:47;3.65;;;1.50;;
81211;SDS011;70686;52.494;13.420;2023-10-31T12:20:14;1.45;;;1.35;;
81211;SDS011;70686;52.494;13.420;2023-10-31T12:22:41;1.45;;;1.35;;
81211;SDS011;70686;52.494;13.420;2023-10-31T12:25:07;1.88;;;1.42;;
81211;SDS011;70686;52.494;13.420;2023-10-31T12:27:41;2.53;;;1.70;;
81211;SDS011;70686;52.494;13.420;2023-10-31T12:30:09;1.33;;;1.05;;
81211;SDS011;70686;52.494;13.420;2023-10-31T12:32:35;1.65;;;1.52;;
81211;SDS011;70686;52.494;13.420;2023-10-31T12:35:01;2.17;;;1.38;;
81211;SDS011;70686;52.494;13.420;2023-10-31T12:37:28;2.40;;;2.03;;
81211;SDS011;70686;52.494;13.420;2023-10-31T12:39:54;2.92;;;1.35;;
81211;SDS011;70686;52.494;13.420;2023-10-31T12:42:22;1.48;;;1.23;;
81211;SDS011;70686;52.494;13.420;2023-10-31T12:44:54;1.60;;;1.38;;
81211;SDS011;70686;52.494;13.420;2023-10-31T12:47:23;2.75;;;1.65;;
81211;SDS011;70686;52.494;13.420;2023-10-31T12:50:04;0.63;;;0.63;;
81211;SDS011;70686;52.494;13.420;2023-10-31T12:52:54;1.15;;;1.05;;
81211;SDS011;70686;52.494;13.420;2023-10-31T12:55:22;1.35;;;1.00;;
81211;SDS011;70686;52.494;13.420;2023-10-31T12:57:50;1.45;;;1.35;;
81211;SDS011;70686;52.494;13.420;2023-10-31T13:00:17;1.67;;;1.25;;
81211;SDS011;70686;52.494;13.420;2023-10-31T13:02:52;2.25;;;1.40;;
81211;SDS011;70686;52.494;13.420;2023-10-31T13:05:27;1.52;;;1.00;;
81211;SDS011;70686;52.494;13.420;2023-10-31T13:07:57;1.50;;;1.20;;
81211;SDS011;70686;52.494;13.420;2023-10-31T13:10:25;1.33;;;1.00;;
81211;SDS011;70686;52.494;13.420;2023-10-31T13:12:52;1.85;;;1.15;;
81211;SDS011;70686;52.494;13.420;2023-10-31T13:15:19;0.82;;;0.82;;
81211;SDS011;70686;52.494;13.420;2023-10-31T13:17:49;1.70;;;1.05;;
81211;SDS011;70686;52.494;13.420;2023-10-31T13:20:17;1.13;;;0.75;;
81211;SDS011;70686;52.494;13.420;2023-10-31T13:22:44;1.58;;;1.38;;
81211;SDS011;70686;52.494;13.420;2023-10-31T13:25:11;1.70;;;1.10;;
81211;SDS011;70686;52.494;13.420;2023-10-31T13:27:38;1.83;;;1.10;;
81211;SDS011;70686;52.494;13.420;2023-10-31T13:30:08;4.35;;;1.25;;
81211;SDS011;70686;52.494;13.420;2023-10-31T13:32:41;2.38;;;1.52;;
81211;SDS011;70686;52.494;13.420;2023-10-31T13:35:07;1.60;;;1.02;;
81211;SDS011;70686;52.494;13.420;2023-10-31T13:37:35;1.30;;;1.15;;
81211;SDS011;70686;52.494;13.420;2023-10-31T13:40:01;0.70;;;0.70;;
81211;SDS011;70686;52.494;13.420;2023-10-31T13:42:33;1.23;;;1.13;;
81211;SDS011;70686;52.494;13.420;2023-10-31T13:44:59;0.88;;;0.77;;
81211;SDS011;70686;52.494;13.420;2023-10-31T13:47:24;0.68;;;0.68;;
81211;SDS011;70686;52.494;13.420;2023-10-31T13:49:50;1.08;;;0.70;;
81211;SDS011;70686;52.494;13.420;2023-10-31T13:52:16;3.22;;;0.88;;
81211;SDS011;70686;52.494;13.420;2023-10-31T13:54:42;1.05;;;1.00;;
81211;SDS011;70686;52.494;13.420;2023-10-31T13:57:08;0.88;;;0.82;;
81211;SDS011;70686;52.494;13.420;2023-10-31T13:59:34;1.33;;;0.80;;
81211;SDS011;70686;52.494;13.420;2023-10-31T14:01:59;1.95;;;1.10;;
81211;SDS011;70686;52.494;13.420;2023-10-31T14:04:25;1.45;;;1.20;;
81211;SDS011;70686;52.494;13.420;2023-10-31T14:06:51;1.42;;;1.27;;
81211;SDS011;70686;52.494;13.420;2023-10-31T14:09:16;2.17;;;1.55;;
81211;SDS011;70686;52.494;13.420;2023-10-31T14:11:42;0.52;;;0.40;;
81211;SDS011;70686;52.494;13.420;2023-10-31T14:14:08;1.05;;;0.95;;
81211;SDS011;70686;52.494;13.420;2023-10-31T14:16:44;1.20;;;1.10;;
81211;SDS011;70686;52.494;13.420;2023-10-31T14:19:11;1.15;;;0.80;;
81211;SDS011;70686;52.494;13.420;2023-10-31T14:21:38;0.80;;;0.80;;
81211;SDS011;70686;52.494;13.420;2023-10-31T14:24:07;1.05;;;0.80;;
81211;SDS011;70686;52.494;13.420;2023-10-31T14:26:35;1.98;;;1.33;;
81211;SDS011;70686;52.494;13.420;2023-10-31T14:29:03;3.03;;;1.67;;
81211;SDS011;70686;52.494;13.420;2023-10-31T14:31:29;1.40;;;1.30;;